sensor_id;sensor_type;location;lat;lon;timestamp;temperature;humidity
6206;DHT22;3136;48.788;9.772;2023-03-01T00:01:26;-3.80;99.90
6206;DHT22;3136;48.788;9.772;2023-03-01T00:03:52;-3.90;99.90
6206;DHT22;3136;48.788;9.772;2023-03-01T00:06:18;-3.90;1.00
6206;DHT22;3136;48.788;9.772;2023-03-01T00:08:44;-3.90;1.00
6206;DHT22;3136;48.788;9.772;2023-03-01T00:11:15;-3.90;1.00
6206;DHT22;3136;48.788;9.772;2023-03-01T00:13:42;-3.90;1.00
6206;DHT22;3136;48.788;9.772;2023-03-01T00:16:11;-3.90;1.00
6206;DHT22;3136;48.788;9.772;2023-03-01T00:18:38;-4.00;1.00
6206;DHT22;3136;48.788;9.772;2023-03-01T00:21:04;-3.90;1.00
6206;DHT22;3136;48.788;9.772;2023-03-01T00:23:31;-3.90;1.00
6206;DHT22;3136;48.788;9.772;2023-03-01T00:25:56;-3.90;1.00
6206;DHT22;3136;48.788;9.772;2023-03-01T00:28:22;-3.90;1.00
6206;DHT22;3136;48.788;9.772;2023-03-01T00:30:48;-4.00;1.00
6206;DHT22;3136;48.788;9.772;2023-03-01T00:33:14;-4.00;1.00
6206;DHT22;3136;48.788;9.772;2023-03-01T00:35:39;-3.90;1.00
6206;DHT22;3136;48.788;9.772;2023-03-01T00:38:05;-4.00;1.00
6206;DHT22;3136;48.788;9.772;2023-03-01T00:40:33;-3.90;1.00
6206;DHT22;3136;48.788;9.772;2023-03-01T00:42:59;-4.00;1.00
6206;DHT22;3136;48.788;9.772;2023-03-01T00:45:25;-3.90;39.40
6206;DHT22;3136;48.788;9.772;2023-03-01T00:47:51;-3.90;99.90
6206;DHT22;3136;48.788;9.772;2023-03-01T00:50:17;-3.90;99.90
6206;DHT22;3136;48.788;9.772;2023-03-01T00:52:43;-3.90;99.90
6206;DHT22;3136;48.788;9.772;2023-03-01T00:55:09;-3.90;99.90
6206;DHT22;3136;48.788;9.772;2023-03-01T00:57:35;-3.90;99.90
6206;DHT22;3136;48.788;9.772;2023-03-01T01:00:01;-3.80;99.90
6206;DHT22;3136;48.788;9.772;2023-03-01T01:02:26;-3.70;99.90
6206;DHT22;3136;48.788;9.772;2023-03-01T01:04:52;-3.60;99.90
6206;DHT22;3136;48.788;9.772;2023-03-01T01:07:18;-3.50;1.00
6206;DHT22;3136;48.788;9.772;2023-03-01T01:09:46;-3.40;99.90
6206;DHT22;3136;48.788;9.772;2023-03-01T01:12:12;-3.30;99.90
6206;DHT22;3136;48.788;9.772;2023-03-01T01:14:37;-3.30;99.90
6206;DHT22;3136;48.788;9.772;2023-03-01T01:17:03;-3.20;99.90
6206;DHT22;3136;48.788;9.772;2023-03-01T01:19:29;-3.10;99.90
6206;DHT22;3136;48.788;9.772;2023-03-01T01:21:55;-3.00;59.20
6206;DHT22;3136;48.788;9.772;2023-03-01T01:24:21;-3.00;1.00
6206;DHT22;3136;48.788;9.772;2023-03-01T01:26:46;-2.90;1.00
6206;DHT22;3136;48.788;9.772;2023-03-01T01:29:12;-2.90;1.00
6206;DHT22;3136;48.788;9.772;2023-03-01T01:31:40;-2.80;1.00
6206;DHT22;3136;48.788;9.772;2023-03-01T01:34:08;-2.70;1.00
6206;DHT22;3136;48.788;9.772;2023-03-01T01:36:34;-2.60;1.00
6206;DHT22;3136;48.788;9.772;2023-03-01T01:39:00;-2.60;1.00
6206;DHT22;3136;48.788;9.772;2023-03-01T01:41:27;-2.50;1.00
6206;DHT22;3136;48.788;9.772;2023-03-01T01:46:40;-2.40;1.00
6206;DHT22;3136;48.788;9.772;2023-03-01T01:51:51;-2.50;99.90
6206;DHT22;3136;48.788;9.772;2023-03-01T01:54:25;-2.50;99.90
6206;DHT22;3136;48.788;9.772;2023-03-01T01:56:57;-2.50;99.90
6206;DHT22;3136;48.788;9.772;2023-03-01T01:59:25;-2.40;99.90
6206;DHT22;3136;48.788;9.772;2023-03-01T02:01:53;-2.40;99.90
6206;DHT22;3136;48.788;9.772;2023-03-01T02:04:18;-2.30;99.90
6206;DHT22;3136;48.788;9.772;2023-03-01T02:06:51;-2.30;99.90
6206;DHT22;3136;48.788;9.772;2023-03-01T02:09:20;-2.20;99.90
6206;DHT22;3136;48.788;9.772;2023-03-01T02:11:48;-2.20;99.90
6206;DHT22;3136;48.788;9.772;2023-03-01T02:14:15;-2.20;99.90
6206;DHT22;3136;48.788;9.772;2023-03-01T02:16:41;-2.20;99.90
6206;DHT22;3136;48.788;9.772;2023-03-01T02:19:08;-2.10;99.90
6206;DHT22;3136;48.788;9.772;2023-03-01T02:22:28;-2.10;99.90
6206;DHT22;3136;48.788;9.772;2023-03-01T02:28:01;-2.00;80.00
6206;DHT22;3136;48.788;9.772;2023-03-01T02:30:31;-2.00;33.50
6206;DHT22;3136;48.788;9.772;2023-03-01T02:32:59;-2.00;1.00
6206;DHT22;3136;48.788;9.772;2023-03-01T02:35:30;-1.90;1.00
6206;DHT22;3136;48.788;9.772;2023-03-01T02:37:57;-1.90;1.00
6206;DHT22;3136;48.788;9.772;2023-03-01T02:40:29;-1.90;1.00
6206;DHT22;3136;48.788;9.772;2023-03-01T02:42:57;-1.80;1.00
6206;DHT22;3136;48.788;9.772;2023-03-01T02:45:23;-1.80;1.90
6206;DHT22;3136;48.788;9.772;2023-03-01T02:47:49;-1.80;4.80
6206;DHT22;3136;48.788;9.772;2023-03-01T02:53:53;-1.60;1.00
6206;DHT22;3136;48.788;9.772;2023-03-01T02:56:21;-1.60;1.00
6206;DHT22;3136;48.788;9.772;2023-03-01T02:58:48;-1.40;1.00
6206;DHT22;3136;48.788;9.772;2023-03-01T03:01:19;-1.30;99.90
6206;DHT22;3136;48.788;9.772;2023-03-01T03:03:46;-1.20;99.90
6206;DHT22;3136;48.788;9.772;2023-03-01T03:06:11;-1.10;99.90
6206;DHT22;3136;48.788;9.772;2023-03-01T03:08:37;-1.10;99.90
6206;DHT22;3136;48.788;9.772;2023-03-01T03:11:03;-1.00;99.90
6206;DHT22;3136;48.788;9.772;2023-03-01T03:13:29;-0.80;99.90
6206;DHT22;3136;48.788;9.772;2023-03-01T03:15:57;-0.90;99.90
6206;DHT22;3136;48.788;9.772;2023-03-01T03:18:24;-0.80;99.90
6206;DHT22;3136;48.788;9.772;2023-03-01T03:20:51;-0.80;99.90
6206;DHT22;3136;48.788;9.772;2023-03-01T03:23:19;-0.80;99.90
6206;DHT22;3136;48.788;9.772;2023-03-01T03:25:48;-0.70;99.90
6206;DHT22;3136;48.788;9.772;2023-03-01T03:28:14;-0.70;99.90
6206;DHT22;3136;48.788;9.772;2023-03-01T03:30:43;-0.70;99.90
6206;DHT22;3136;48.788;9.772;2023-03-01T03:33:11;-0.70;99.90
6206;DHT22;3136;48.788;9.772;2023-03-01T03:35:47;-1.80;99.90
6206;DHT22;3136;48.788;9.772;2023-03-01T03:38:14;-0.60;99.90
6206;DHT22;3136;48.788;9.772;2023-03-01T03:43:14;-0.70;99.90
6206;DHT22;3136;48.788;9.772;2023-03-01T03:45:40;-0.60;99.90
6206;DHT22;3136;48.788;9.772;2023-03-01T03:48:07;-0.60;99.90
6206;DHT22;3136;48.788;9.772;2023-03-01T03:50:34;-0.60;99.90
6206;DHT22;3136;48.788;9.772;2023-03-01T03:53:01;-0.60;99.90
6206;DHT22;3136;48.788;9.772;2023-03-01T03:55:27;-0.60;99.90
6206;DHT22;3136;48.788;9.772;2023-03-01T03:57:57;-0.70;99.90
6206;DHT22;3136;48.788;9.772;2023-03-01T04:00:23;-0.70;99.90
6206;DHT22;3136;48.788;9.772;2023-03-01T04:02:50;-0.70;99.90
6206;DHT22;3136;48.788;9.772;2023-03-01T04:05:17;-0.70;99.90
6206;DHT22;3136;48.788;9.772;2023-03-01T04:07:44;-0.70;99.90
6206;DHT22;3136;48.788;9.772;2023-03-01T04:10:14;-0.70;99.90
6206;DHT22;3136;48.788;9.772;2023-03-01T04:12:39;-0.70;99.90
6206;DHT22;3136;48.788;9.772;2023-03-01T04:15:07;-0.70;99.90
6206;DHT22;3136;48.788;9.772;2023-03-01T04:17:43;-0.70;99.90
6206;DHT22;3136;48.788;9.772;2023-03-01T04:20:10;-0.70;99.90
6206;DHT22;3136;48.788;9.772;2023-03-01T04:22:37;-0.70;99.90
6206;DHT22;3136;48.788;9.772;2023-03-01T04:25:03;-0.60;99.90
6206;DHT22;3136;48.788;9.772;2023-03-01T04:27:30;-0.60;99.90
6206;DHT22;3136;48.788;9.772;2023-03-01T04:29:55;-0.60;99.90
6206;DHT22;3136;48.788;9.772;2023-03-01T04:32:21;-0.60;99.90
6206;DHT22;3136;48.788;9.772;2023-03-01T04:34:46;-0.60;99.90
6206;DHT22;3136;48.788;9.772;2023-03-01T04:37:12;-0.60;99.90
6206;DHT22;3136;48.788;9.772;2023-03-01T04:39:37;-0.60;99.90
6206;DHT22;3136;48.788;9.772;2023-03-01T04:42:16;-0.60;99.90
6206;DHT22;3136;48.788;9.772;2023-03-01T04:44:42;-0.50;99.90
6206;DHT22;3136;48.788;9.772;2023-03-01T04:47:08;-0.50;99.90
6206;DHT22;3136;48.788;9.772;2023-03-01T04:49:34;-0.50;99.90
6206;DHT22;3136;48.788;9.772;2023-03-01T04:52:00;-0.50;99.90
6206;DHT22;3136;48.788;9.772;2023-03-01T04:54:34;-0.50;99.90
6206;DHT22;3136;48.788;9.772;2023-03-01T04:57:01;-0.40;99.90
6206;DHT22;3136;48.788;9.772;2023-03-01T04:59:27;-0.40;99.90
6206;DHT22;3136;48.788;9.772;2023-03-01T05:01:53;-0.40;99.90
6206;DHT22;3136;48.788;9.772;2023-03-01T05:04:23;-0.40;99.90
6206;DHT22;3136;48.788;9.772;2023-03-01T05:06:49;-0.40;99.90
6206;DHT22;3136;48.788;9.772;2023-03-01T05:09:15;-0.40;99.90
6206;DHT22;3136;48.788;9.772;2023-03-01T05:11:41;-0.40;99.90
6206;DHT22;3136;48.788;9.772;2023-03-01T05:14:07;-0.30;99.90
6206;DHT22;3136;48.788;9.772;2023-03-01T05:16:34;-0.30;99.90
6206;DHT22;3136;48.788;9.772;2023-03-01T05:18:59;-0.30;99.90
6206;DHT22;3136;48.788;9.772;2023-03-01T05:21:26;-0.30;99.90
6206;DHT22;3136;48.788;9.772;2023-03-01T05:23:51;-0.30;99.90
6206;DHT22;3136;48.788;9.772;2023-03-01T05:26:19;-0.30;99.90
6206;DHT22;3136;48.788;9.772;2023-03-01T05:28:47;-0.30;99.90
6206;DHT22;3136;48.788;9.772;2023-03-01T05:31:12;-0.30;99.90
6206;DHT22;3136;48.788;9.772;2023-03-01T05:33:39;-0.30;99.90
6206;DHT22;3136;48.788;9.772;2023-03-01T05:36:06;-0.30;99.90
6206;DHT22;3136;48.788;9.772;2023-03-01T05:38:33;-0.30;99.90
6206;DHT22;3136;48.788;9.772;2023-03-01T05:40:59;-0.30;99.90
6206;DHT22;3136;48.788;9.772;2023-03-01T05:43:24;-0.30;99.90
6206;DHT22;3136;48.788;9.772;2023-03-01T05:45:50;-0.30;99.90
6206;DHT22;3136;48.788;9.772;2023-03-01T05:48:16;-0.30;99.90
6206;DHT22;3136;48.788;9.772;2023-03-01T05:50:45;-0.30;99.90
6206;DHT22;3136;48.788;9.772;2023-03-01T05:53:14;-0.30;99.90
6206;DHT22;3136;48.788;9.772;2023-03-01T05:55:41;-0.30;99.90
6206;DHT22;3136;48.788;9.772;2023-03-01T05:58:11;-0.40;99.90
6206;DHT22;3136;48.788;9.772;2023-03-01T06:00:39;-0.50;99.90
6206;DHT22;3136;48.788;9.772;2023-03-01T06:03:05;-0.60;99.90
6206;DHT22;3136;48.788;9.772;2023-03-01T06:05:30;-0.60;99.90
6206;DHT22;3136;48.788;9.772;2023-03-01T06:07:59;-0.70;99.90
6206;DHT22;3136;48.788;9.772;2023-03-01T06:10:25;-0.80;99.90
6206;DHT22;3136;48.788;9.772;2023-03-01T06:12:50;-0.90;99.90
6206;DHT22;3136;48.788;9.772;2023-03-01T06:15:16;-0.90;99.90
6206;DHT22;3136;48.788;9.772;2023-03-01T06:17:44;-0.90;99.90
6206;DHT22;3136;48.788;9.772;2023-03-01T06:20:16;-1.00;99.90
6206;DHT22;3136;48.788;9.772;2023-03-01T06:22:42;-1.00;99.90
6206;DHT22;3136;48.788;9.772;2023-03-01T06:25:09;-1.00;99.90
6206;DHT22;3136;48.788;9.772;2023-03-01T06:27:35;-1.10;99.90
6206;DHT22;3136;48.788;9.772;2023-03-01T06:30:02;-1.10;99.90
6206;DHT22;3136;48.788;9.772;2023-03-01T06:32:28;-1.10;99.90
6206;DHT22;3136;48.788;9.772;2023-03-01T06:34:53;-1.10;99.90
6206;DHT22;3136;48.788;9.772;2023-03-01T06:37:19;-1.20;99.90
6206;DHT22;3136;48.788;9.772;2023-03-01T06:39:44;-1.20;99.90
6206;DHT22;3136;48.788;9.772;2023-03-01T06:42:10;-1.20;99.90
6206;DHT22;3136;48.788;9.772;2023-03-01T06:44:36;-1.20;99.90
6206;DHT22;3136;48.788;9.772;2023-03-01T06:47:03;-1.20;99.90
6206;DHT22;3136;48.788;9.772;2023-03-01T06:49:29;-1.20;99.90
6206;DHT22;3136;48.788;9.772;2023-03-01T06:51:55;-1.20;99.90
6206;DHT22;3136;48.788;9.772;2023-03-01T06:54:21;-1.10;99.90
6206;DHT22;3136;48.788;9.772;2023-03-01T06:56:48;-1.10;99.90
6206;DHT22;3136;48.788;9.772;2023-03-01T06:59:14;-1.10;99.90
6206;DHT22;3136;48.788;9.772;2023-03-01T07:01:40;-1.10;99.90
6206;DHT22;3136;48.788;9.772;2023-03-01T07:04:06;-1.00;99.90
6206;DHT22;3136;48.788;9.772;2023-03-01T07:06:31;-1.00;99.90
6206;DHT22;3136;48.788;9.772;2023-03-01T07:08:57;-1.00;99.90
6206;DHT22;3136;48.788;9.772;2023-03-01T07:11:22;-1.00;99.90
6206;DHT22;3136;48.788;9.772;2023-03-01T07:13:48;-1.00;99.90
6206;DHT22;3136;48.788;9.772;2023-03-01T07:16:14;-0.90;99.90
6206;DHT22;3136;48.788;9.772;2023-03-01T07:18:40;-0.90;99.90
6206;DHT22;3136;48.788;9.772;2023-03-01T07:21:07;-0.80;99.90
6206;DHT22;3136;48.788;9.772;2023-03-01T07:23:33;-0.90;99.90
6206;DHT22;3136;48.788;9.772;2023-03-01T07:25:59;-0.90;99.90
6206;DHT22;3136;48.788;9.772;2023-03-01T07:28:25;-0.80;99.90
6206;DHT22;3136;48.788;9.772;2023-03-01T07:30:54;-0.80;99.90
6206;DHT22;3136;48.788;9.772;2023-03-01T07:33:20;-0.80;99.90
6206;DHT22;3136;48.788;9.772;2023-03-01T07:35:46;-0.70;99.90
6206;DHT22;3136;48.788;9.772;2023-03-01T07:38:11;-0.70;99.90
6206;DHT22;3136;48.788;9.772;2023-03-01T07:40:37;-0.70;99.90
6206;DHT22;3136;48.788;9.772;2023-03-01T07:43:02;-0.60;99.90
6206;DHT22;3136;48.788;9.772;2023-03-01T07:45:29;-0.50;99.90
6206;DHT22;3136;48.788;9.772;2023-03-01T07:47:55;-0.50;99.90
6206;DHT22;3136;48.788;9.772;2023-03-01T07:50:22;-0.50;99.90
6206;DHT22;3136;48.788;9.772;2023-03-01T07:52:49;-0.40;99.90
6206;DHT22;3136;48.788;9.772;2023-03-01T07:55:15;-0.30;99.90
6206;DHT22;3136;48.788;9.772;2023-03-01T07:57:41;-0.30;99.90
6206;DHT22;3136;48.788;9.772;2023-03-01T08:00:09;-0.20;99.90
6206;DHT22;3136;48.788;9.772;2023-03-01T08:02:35;-0.20;99.90
6206;DHT22;3136;48.788;9.772;2023-03-01T08:05:00;-0.10;99.90
6206;DHT22;3136;48.788;9.772;2023-03-01T08:07:26;0.00;99.90
6206;DHT22;3136;48.788;9.772;2023-03-01T08:09:52;0.20;99.90
6206;DHT22;3136;48.788;9.772;2023-03-01T08:12:17;0.10;99.90
6206;DHT22;3136;48.788;9.772;2023-03-01T08:14:43;0.10;99.90
6206;DHT22;3136;48.788;9.772;2023-03-01T08:17:09;0.20;99.90
6206;DHT22;3136;48.788;9.772;2023-03-01T08:19:34;0.20;99.90
6206;DHT22;3136;48.788;9.772;2023-03-01T08:22:01;0.30;99.90
6206;DHT22;3136;48.788;9.772;2023-03-01T08:24:27;0.40;99.90
6206;DHT22;3136;48.788;9.772;2023-03-01T08:26:53;0.50;99.90
6206;DHT22;3136;48.788;9.772;2023-03-01T08:29:20;0.50;99.90
6206;DHT22;3136;48.788;9.772;2023-03-01T08:31:45;0.60;99.90
6206;DHT22;3136;48.788;9.772;2023-03-01T08:34:13;0.60;99.90
6206;DHT22;3136;48.788;9.772;2023-03-01T08:36:41;0.70;99.90
6206;DHT22;3136;48.788;9.772;2023-03-01T08:39:08;0.90;99.90
6206;DHT22;3136;48.788;9.772;2023-03-01T08:41:34;0.90;99.90
6206;DHT22;3136;48.788;9.772;2023-03-01T08:44:00;1.00;99.90
6206;DHT22;3136;48.788;9.772;2023-03-01T08:46:31;1.10;99.90
6206;DHT22;3136;48.788;9.772;2023-03-01T08:48:57;1.20;99.90
6206;DHT22;3136;48.788;9.772;2023-03-01T08:51:24;1.20;99.90
6206;DHT22;3136;48.788;9.772;2023-03-01T08:53:50;1.30;99.90
6206;DHT22;3136;48.788;9.772;2023-03-01T08:56:16;1.40;99.90
6206;DHT22;3136;48.788;9.772;2023-03-01T08:58:45;1.40;99.90
6206;DHT22;3136;48.788;9.772;2023-03-01T09:01:13;1.40;99.20
6206;DHT22;3136;48.788;9.772;2023-03-01T09:03:39;1.50;99.90
6206;DHT22;3136;48.788;9.772;2023-03-01T09:06:06;1.60;99.90
6206;DHT22;3136;48.788;9.772;2023-03-01T09:08:35;1.70;98.00
6206;DHT22;3136;48.788;9.772;2023-03-01T09:11:02;1.80;96.80
6206;DHT22;3136;48.788;9.772;2023-03-01T09:13:28;2.00;94.50
6206;DHT22;3136;48.788;9.772;2023-03-01T09:15:57;2.10;96.20
6206;DHT22;3136;48.788;9.772;2023-03-01T09:18:22;2.30;99.90
6206;DHT22;3136;48.788;9.772;2023-03-01T09:20:48;2.30;88.40
6206;DHT22;3136;48.788;9.772;2023-03-01T09:23:13;2.40;86.60
6206;DHT22;3136;48.788;9.772;2023-03-01T09:25:39;2.40;87.40
6206;DHT22;3136;48.788;9.772;2023-03-01T09:28:04;2.60;87.50
6206;DHT22;3136;48.788;9.772;2023-03-01T09:30:30;2.70;82.70
6206;DHT22;3136;48.788;9.772;2023-03-01T09:32:58;3.20;83.30
6206;DHT22;3136;48.788;9.772;2023-03-01T09:35:24;3.00;82.10
6206;DHT22;3136;48.788;9.772;2023-03-01T09:37:50;3.20;80.50
6206;DHT22;3136;48.788;9.772;2023-03-01T09:40:19;5.20;77.20
6206;DHT22;3136;48.788;9.772;2023-03-01T09:43:06;3.60;70.40
6206;DHT22;3136;48.788;9.772;2023-03-01T09:45:35;3.70;68.10
6206;DHT22;3136;48.788;9.772;2023-03-01T09:48:04;3.80;68.60
6206;DHT22;3136;48.788;9.772;2023-03-01T09:50:38;3.90;63.30
6206;DHT22;3136;48.788;9.772;2023-03-01T09:53:15;4.00;63.30
6206;DHT22;3136;48.788;9.772;2023-03-01T09:55:48;4.20;59.10
6206;DHT22;3136;48.788;9.772;2023-03-01T10:01:29;4.30;57.40
6206;DHT22;3136;48.788;9.772;2023-03-01T10:04:31;4.50;59.10
6206;DHT22;3136;48.788;9.772;2023-03-01T10:09:40;4.70;54.80
6206;DHT22;3136;48.788;9.772;2023-03-01T10:12:15;4.80;55.10
6206;DHT22;3136;48.788;9.772;2023-03-01T10:14:58;4.90;55.30
6206;DHT22;3136;48.788;9.772;2023-03-01T10:17:32;5.10;52.90
6206;DHT22;3136;48.788;9.772;2023-03-01T10:20:32;5.40;51.50
6206;DHT22;3136;48.788;9.772;2023-03-01T10:23:00;5.90;49.70
6206;DHT22;3136;48.788;9.772;2023-03-01T10:28:25;6.50;47.40
6206;DHT22;3136;48.788;9.772;2023-03-01T10:30:51;6.70;47.60
6206;DHT22;3136;48.788;9.772;2023-03-01T10:33:23;7.00;47.50
6206;DHT22;3136;48.788;9.772;2023-03-01T10:35:50;7.10;48.20
6206;DHT22;3136;48.788;9.772;2023-03-01T10:38:17;7.20;44.50
6206;DHT22;3136;48.788;9.772;2023-03-01T10:43:20;7.40;45.40
6206;DHT22;3136;48.788;9.772;2023-03-01T10:45:46;7.60;44.80
6206;DHT22;3136;48.788;9.772;2023-03-01T10:48:19;7.80;43.80
6206;DHT22;3136;48.788;9.772;2023-03-01T10:50:48;7.60;45.10
6206;DHT22;3136;48.788;9.772;2023-03-01T10:53:34;7.40;43.70
6206;DHT22;3136;48.788;9.772;2023-03-01T10:58:32;7.40;43.20
6206;DHT22;3136;48.788;9.772;2023-03-01T11:03:43;7.50;44.70
6206;DHT22;3136;48.788;9.772;2023-03-01T11:13:31;8.30;44.30
6206;DHT22;3136;48.788;9.772;2023-03-01T11:16:02;8.50;42.00
6206;DHT22;3136;48.788;9.772;2023-03-01T11:18:30;8.80;42.10
6206;DHT22;3136;48.788;9.772;2023-03-01T11:20:58;9.20;41.50
6206;DHT22;3136;48.788;9.772;2023-03-01T11:23:24;9.70;40.80
6206;DHT22;3136;48.788;9.772;2023-03-01T11:26:03;10.00;37.60
6206;DHT22;3136;48.788;9.772;2023-03-01T11:28:32;10.60;36.60
6206;DHT22;3136;48.788;9.772;2023-03-01T11:31:06;11.40;36.00
6206;DHT22;3136;48.788;9.772;2023-03-01T11:36:40;12.50;34.00
6206;DHT22;3136;48.788;9.772;2023-03-01T11:41:52;13.50;31.20
6206;DHT22;3136;48.788;9.772;2023-03-01T11:44:24;13.80;33.80
6206;DHT22;3136;48.788;9.772;2023-03-01T11:52:16;15.20;30.70
6206;DHT22;3136;48.788;9.772;2023-03-01T11:55:08;15.60;31.30
6206;DHT22;3136;48.788;9.772;2023-03-01T11:57:51;16.10;31.40
6206;DHT22;3136;48.788;9.772;2023-03-01T12:06:41;17.00;29.60
6206;DHT22;3136;48.788;9.772;2023-03-01T12:09:36;16.80;28.70
6206;DHT22;3136;48.788;9.772;2023-03-01T12:15:04;16.80;29.20
6206;DHT22;3136;48.788;9.772;2023-03-01T12:17:57;17.10;27.60
6206;DHT22;3136;48.788;9.772;2023-03-01T12:23:38;16.60;25.60
6206;DHT22;3136;48.788;9.772;2023-03-01T12:31:53;15.80;25.30
6206;DHT22;3136;48.788;9.772;2023-03-01T12:34:55;17.20;26.10
6206;DHT22;3136;48.788;9.772;2023-03-01T12:51:08;18.10;23.40
6206;DHT22;3136;48.788;9.772;2023-03-01T12:53:44;18.40;23.70
6206;DHT22;3136;48.788;9.772;2023-03-01T12:56:23;18.30;23.80
6206;DHT22;3136;48.788;9.772;2023-03-01T13:04:12;17.50;22.20
6206;DHT22;3136;48.788;9.772;2023-03-01T13:09:24;17.30;22.10
6206;DHT22;3136;48.788;9.772;2023-03-01T13:11:52;17.30;20.00
6206;DHT22;3136;48.788;9.772;2023-03-01T13:16:49;17.20;20.60
6206;DHT22;3136;48.788;9.772;2023-03-01T13:19:17;17.00;20.60
6206;DHT22;3136;48.788;9.772;2023-03-01T13:21:45;17.70;21.10
6206;DHT22;3136;48.788;9.772;2023-03-01T13:29:59;17.40;19.50
6206;DHT22;3136;48.788;9.772;2023-03-01T13:32:37;17.70;19.20
6206;DHT22;3136;48.788;9.772;2023-03-01T13:37:43;18.00;19.50
6206;DHT22;3136;48.788;9.772;2023-03-01T13:42:48;18.00;19.80
6206;DHT22;3136;48.788;9.772;2023-03-01T13:45:43;18.10;20.00
6206;DHT22;3136;48.788;9.772;2023-03-01T13:50:52;18.00;19.70
6206;DHT22;3136;48.788;9.772;2023-03-01T13:53:22;18.30;19.50
6206;DHT22;3136;48.788;9.772;2023-03-01T13:55:55;17.60;18.20
6206;DHT22;3136;48.788;9.772;2023-03-01T13:58:33;17.10;18.10
6206;DHT22;3136;48.788;9.772;2023-03-01T14:01:21;17.30;18.10
6206;DHT22;3136;48.788;9.772;2023-03-01T14:03:47;18.00;17.80
6206;DHT22;3136;48.788;9.772;2023-03-01T14:06:15;17.70;19.10
6206;DHT22;3136;48.788;9.772;2023-03-01T14:08:44;17.90;17.60
6206;DHT22;3136;48.788;9.772;2023-03-01T14:14:06;17.80;16.80
6206;DHT22;3136;48.788;9.772;2023-03-01T14:19:27;17.00;16.40
6206;DHT22;3136;48.788;9.772;2023-03-01T14:24:39;17.40;17.50
6206;DHT22;3136;48.788;9.772;2023-03-01T14:27:12;17.40;18.30
6206;DHT22;3136;48.788;9.772;2023-03-01T14:29:39;17.50;17.10
6206;DHT22;3136;48.788;9.772;2023-03-01T14:32:18;17.60;15.90
6206;DHT22;3136;48.788;9.772;2023-03-01T14:34:47;17.50;16.50
6206;DHT22;3136;48.788;9.772;2023-03-01T14:37:31;17.60;16.00
6206;DHT22;3136;48.788;9.772;2023-03-01T14:39:59;17.90;15.30
6206;DHT22;3136;48.788;9.772;2023-03-01T14:42:28;17.10;16.50
6206;DHT22;3136;48.788;9.772;2023-03-01T14:44:55;17.10;17.20
6206;DHT22;3136;48.788;9.772;2023-03-01T14:47:31;17.10;15.00
6206;DHT22;3136;48.788;9.772;2023-03-01T14:50:36;17.30;16.00
6206;DHT22;3136;48.788;9.772;2023-03-01T14:52:59;17.20;15.40
6206;DHT22;3136;48.788;9.772;2023-03-01T14:55:33;16.40;14.60
6206;DHT22;3136;48.788;9.772;2023-03-01T14:58:03;15.90;14.10
6206;DHT22;3136;48.788;9.772;2023-03-01T15:00:31;15.90;14.00
6206;DHT22;3136;48.788;9.772;2023-03-01T15:03:02;15.90;13.90
6206;DHT22;3136;48.788;9.772;2023-03-01T15:05:31;15.90;14.70
6206;DHT22;3136;48.788;9.772;2023-03-01T15:07:58;15.40;13.50
6206;DHT22;3136;48.788;9.772;2023-03-01T15:10:28;15.00;14.00
6206;DHT22;3136;48.788;9.772;2023-03-01T15:12:55;14.80;14.80
6206;DHT22;3136;48.788;9.772;2023-03-01T15:15:36;14.60;15.00
6206;DHT22;3136;48.788;9.772;2023-03-01T15:18:17;13.90;13.90
6206;DHT22;3136;48.788;9.772;2023-03-01T15:20:45;13.40;12.70
6206;DHT22;3136;48.788;9.772;2023-03-01T15:23:26;13.20;12.20
6206;DHT22;3136;48.788;9.772;2023-03-01T15:25:53;12.80;12.90
6206;DHT22;3136;48.788;9.772;2023-03-01T15:28:34;12.80;13.20
6206;DHT22;3136;48.788;9.772;2023-03-01T15:31:05;12.60;14.60
6206;DHT22;3136;48.788;9.772;2023-03-01T15:33:37;12.20;13.50
6206;DHT22;3136;48.788;9.772;2023-03-01T15:39:34;11.20;12.80
6206;DHT22;3136;48.788;9.772;2023-03-01T15:42:03;10.70;13.50
6206;DHT22;3136;48.788;9.772;2023-03-01T15:44:36;10.40;13.90
6206;DHT22;3136;48.788;9.772;2023-03-01T15:47:22;10.20;13.10
6206;DHT22;3136;48.788;9.772;2023-03-01T15:49:51;9.90;14.70
6206;DHT22;3136;48.788;9.772;2023-03-01T15:52:29;9.50;14.30
6206;DHT22;3136;48.788;9.772;2023-03-01T15:55:00;9.20;15.00
6206;DHT22;3136;48.788;9.772;2023-03-01T15:57:26;9.10;15.40
6206;DHT22;3136;48.788;9.772;2023-03-01T15:59:52;8.90;16.00
6206;DHT22;3136;48.788;9.772;2023-03-01T16:02:18;8.70;15.90
6206;DHT22;3136;48.788;9.772;2023-03-01T16:04:46;8.60;17.20
6206;DHT22;3136;48.788;9.772;2023-03-01T16:07:12;8.40;16.50
6206;DHT22;3136;48.788;9.772;2023-03-01T16:09:37;8.30;16.70
6206;DHT22;3136;48.788;9.772;2023-03-01T16:12:03;8.20;16.80
6206;DHT22;3136;48.788;9.772;2023-03-01T16:14:29;8.10;16.80
6206;DHT22;3136;48.788;9.772;2023-03-01T16:16:54;8.40;18.20
6206;DHT22;3136;48.788;9.772;2023-03-01T16:19:20;7.70;17.90
6206;DHT22;3136;48.788;9.772;2023-03-01T16:21:46;7.90;18.00
6206;DHT22;3136;48.788;9.772;2023-03-01T16:24:14;7.90;16.80
6206;DHT22;3136;48.788;9.772;2023-03-01T16:26:39;7.90;17.70
6206;DHT22;3136;48.788;9.772;2023-03-01T16:29:05;7.80;17.60
6206;DHT22;3136;48.788;9.772;2023-03-01T16:31:31;7.70;17.50
6206;DHT22;3136;48.788;9.772;2023-03-01T16:33:58;7.60;18.00
6206;DHT22;3136;48.788;9.772;2023-03-01T16:36:25;7.50;17.00
6206;DHT22;3136;48.788;9.772;2023-03-01T16:38:53;7.40;18.60
6206;DHT22;3136;48.788;9.772;2023-03-01T16:41:21;7.30;18.30
6206;DHT22;3136;48.788;9.772;2023-03-01T16:43:48;7.20;17.90
6206;DHT22;3136;48.788;9.772;2023-03-01T16:46:22;7.10;18.20
6206;DHT22;3136;48.788;9.772;2023-03-01T16:48:49;7.00;18.40
6206;DHT22;3136;48.788;9.772;2023-03-01T16:51:15;6.90;18.80
6206;DHT22;3136;48.788;9.772;2023-03-01T16:53:41;6.80;18.30
6206;DHT22;3136;48.788;9.772;2023-03-01T16:56:08;6.70;19.20
6206;DHT22;3136;48.788;9.772;2023-03-01T16:58:35;6.50;19.20
6206;DHT22;3136;48.788;9.772;2023-03-01T17:01:20;6.30;19.40
6206;DHT22;3136;48.788;9.772;2023-03-01T17:03:49;6.10;19.40
6206;DHT22;3136;48.788;9.772;2023-03-01T17:06:18;5.90;20.40
6206;DHT22;3136;48.788;9.772;2023-03-01T17:08:45;5.80;20.50
6206;DHT22;3136;48.788;9.772;2023-03-01T17:11:14;5.70;22.20
6206;DHT22;3136;48.788;9.772;2023-03-01T17:13:40;5.50;21.80
6206;DHT22;3136;48.788;9.772;2023-03-01T17:16:08;5.40;21.50
6206;DHT22;3136;48.788;9.772;2023-03-01T17:18:34;5.30;22.80
6206;DHT22;3136;48.788;9.772;2023-03-01T17:21:00;5.20;24.10
6206;DHT22;3136;48.788;9.772;2023-03-01T17:23:27;5.10;24.30
6206;DHT22;3136;48.788;9.772;2023-03-01T17:25:54;4.90;25.40
6206;DHT22;3136;48.788;9.772;2023-03-01T17:28:21;4.80;26.60
6206;DHT22;3136;48.788;9.772;2023-03-01T17:30:48;5.00;28.30
6206;DHT22;3136;48.788;9.772;2023-03-01T17:33:14;4.50;29.70
6206;DHT22;3136;48.788;9.772;2023-03-01T17:35:40;4.40;31.80
6206;DHT22;3136;48.788;9.772;2023-03-01T17:38:06;4.30;33.70
6206;DHT22;3136;48.788;9.772;2023-03-01T17:40:32;4.10;36.70
6206;DHT22;3136;48.788;9.772;2023-03-01T17:42:58;3.90;40.20
6206;DHT22;3136;48.788;9.772;2023-03-01T17:45:24;3.70;45.40
6206;DHT22;3136;48.788;9.772;2023-03-01T17:47:49;3.50;51.60
6206;DHT22;3136;48.788;9.772;2023-03-01T17:50:15;3.20;61.90
6206;DHT22;3136;48.788;9.772;2023-03-01T17:52:41;3.00;74.30
6206;DHT22;3136;48.788;9.772;2023-03-01T17:55:07;2.80;92.40
6206;DHT22;3136;48.788;9.772;2023-03-01T17:57:33;2.60;97.80
6206;DHT22;3136;48.788;9.772;2023-03-01T17:59:59;2.50;99.90
6206;DHT22;3136;48.788;9.772;2023-03-01T18:02:24;2.40;99.90
6206;DHT22;3136;48.788;9.772;2023-03-01T18:04:56;2.20;99.90
6206;DHT22;3136;48.788;9.772;2023-03-01T18:07:25;2.10;99.90
6206;DHT22;3136;48.788;9.772;2023-03-01T18:09:50;2.00;99.90
6206;DHT22;3136;48.788;9.772;2023-03-01T18:12:17;1.90;99.90
6206;DHT22;3136;48.788;9.772;2023-03-01T18:14:43;1.80;99.90
6206;DHT22;3136;48.788;9.772;2023-03-01T18:17:09;1.80;99.90